メインページ
METAR-TAF:

METAR-TAF

空港 :

ビンガムトン, ニューヨーク, アメリカ合衆国

緯度: 42-12-28N, 経度: 075-58-53W, 海抜: 496m

現時点の気象観測

当レポートは41分前の05:53(UTC)に作成
北/北西の風 5kt
気温 4°C
湿度 93%
気圧 1014 hPa
視程: 11.3km
高度300ftの曇り

METAR: KBGM 040553Z AUTO 33005KT 7SM OVC003 04/03 A2993 RMK AO2 SLP146 60000 T00390033 10050 20039 52001

時間: 02:34 (06:34 UTC)

予報

当レポートは1時間1分前の05:33(UTC)に作成
予報は04日の 06時(UTC)から 05日の 06時(UTC)まで有効
北/北西の風 5kt
視程: 3.2km
高度300ftの曇り
小霧雨, 靄
04日の 1500時(UTC)から
の風 kt
視程: 8.0km
高度1500ftの千切れ雲あり
04日の 2000時(UTC)から
変向風 3kt
視程: 10km
高度2500ftの千切れ雲あり

TAF: KBGM 040533Z 0406/0506 34005KT 2SM -DZ BR OVC003 FM041500 00000KT 5SM BR BKN015 FM042000 VRB03KT P6SM BKN025

4,000以上の空港の気象観測と天気予報(METAR報とTAF報)

利用可能な観測所は地図上に黄色い丸と赤い丸で示す。

丸の上にカーソルを重ねると観測所名を参照できる。

次にクリックすると気象観測と天気予報を参照できる。

マップの切り替え:黒色「×」印の緑ボタンをクリックして拡大、「-」印の緑ボタンをクリックして縮小、緑色の三角印をクリックして隣りの地図に切り替え


METAR-TAF: